createdAt,value
2019-03-11T00:00:25.628Z,99586
2019-03-11T00:05:25.632Z,99603
2019-03-11T00:10:25.625Z,99601
2019-03-11T00:15:25.629Z,99610
2019-03-11T00:20:25.637Z,99603
2019-03-11T00:25:25.598Z,99618
2019-03-11T00:30:25.644Z,99631
2019-03-11T00:35:25.602Z,99631
2019-03-11T00:40:25.655Z,99647
2019-03-11T00:45:25.642Z,99626
2019-03-11T00:50:25.612Z,99621
2019-03-11T00:55:25.656Z,99630
2019-03-11T01:00:25.658Z,99639
2019-03-11T01:05:25.665Z,99625
2019-03-11T01:10:25.662Z,99638
2019-03-11T01:15:25.666Z,99637
2019-03-11T01:20:25.652Z,99644
2019-03-11T01:25:25.676Z,99647
2019-03-11T01:30:25.628Z,99639
2019-03-11T01:35:25.660Z,99628
2019-03-11T01:40:25.633Z,99645
2019-03-11T01:45:25.656Z,99644
2019-03-11T01:50:25.671Z,99640
2019-03-11T01:55:25.677Z,99628
2019-03-11T02:00:25.674Z,99617
2019-03-11T02:05:25.635Z,99621
2019-03-11T02:10:25.675Z,99619
2019-03-11T02:15:25.683Z,99619
2019-03-11T02:20:25.682Z,99627
2019-03-11T02:25:25.677Z,99625
2019-03-11T02:30:25.714Z,99608
2019-03-11T02:35:25.697Z,99610
2019-03-11T02:40:25.674Z,99615
2019-03-11T02:45:25.691Z,99623
2019-03-11T02:50:25.706Z,99594
2019-03-11T02:55:25.709Z,99612
2019-03-11T03:00:25.693Z,99612
2019-03-11T03:05:25.715Z,99619
2019-03-11T03:10:25.689Z,99622
2019-03-11T03:15:25.706Z,99635
2019-03-11T03:20:25.727Z,99639
2019-03-11T03:25:33.456Z,99646
2019-03-11T03:30:25.699Z,99633
2019-03-11T03:35:25.723Z,99635
2019-03-11T03:40:25.733Z,99651
2019-03-11T03:45:25.730Z,99633
2019-03-11T03:50:25.731Z,99611
2019-03-11T03:55:25.737Z,99628
2019-03-11T04:00:25.732Z,99619
2019-03-11T04:05:25.752Z,99613
2019-03-11T04:10:25.755Z,99613
2019-03-11T04:15:25.748Z,99611
2019-03-11T04:20:25.739Z,99608
2019-03-11T04:25:25.744Z,99598
2019-03-11T04:30:25.707Z,99595
2019-03-11T04:35:25.737Z,99587
2019-03-11T04:40:25.713Z,99587
2019-03-11T04:45:25.751Z,99580
2019-03-11T04:50:25.763Z,99570
2019-03-11T04:55:25.755Z,99556
2019-03-11T05:00:25.765Z,99571
2019-03-11T05:05:25.761Z,99563
2019-03-11T05:10:25.776Z,99563
2019-03-11T05:15:25.764Z,99556
2019-03-11T05:20:25.733Z,99557
2019-03-11T05:25:25.761Z,99553
2019-03-11T05:30:25.788Z,99545
2019-03-11T05:35:25.735Z,99539
2019-03-11T05:40:25.788Z,99533
2019-03-11T05:45:25.773Z,99534
2019-03-11T05:50:25.772Z,99528
2019-03-11T05:55:25.797Z,99539
2019-03-11T06:00:25.794Z,99542
2019-03-11T06:05:25.752Z,99536
2019-03-11T06:10:25.810Z,99537
2019-03-11T06:15:25.793Z,99534
2019-03-11T06:20:25.789Z,99533
2019-03-11T06:25:25.799Z,99533
2019-03-11T06:30:25.756Z,99523
2019-03-11T06:35:25.809Z,99531
2019-03-11T06:40:25.817Z,99536
2019-03-11T06:45:25.806Z,99524
2019-03-11T06:50:25.810Z,99544
2019-03-11T06:55:25.804Z,99553
2019-03-11T07:00:25.811Z,99556
2019-03-11T07:05:25.801Z,99569
2019-03-11T07:10:25.830Z,99573
2019-03-11T07:15:25.816Z,99579
2019-03-11T07:20:25.824Z,99581
2019-03-11T07:25:25.813Z,99593
2019-03-11T07:30:25.830Z,99594
2019-03-11T07:35:25.827Z,99585
2019-03-11T07:40:29.868Z,99593
2019-03-11T07:45:25.829Z,99595
2019-03-11T07:50:25.836Z,99592
2019-03-11T07:55:25.795Z,99592
2019-03-11T08:00:25.851Z,99594
2019-03-11T08:05:25.837Z,99591
2019-03-11T08:10:25.856Z,99576
2019-03-11T08:15:25.849Z,99589
2019-03-11T08:20:25.843Z,99596
2019-03-11T08:25:25.846Z,99601
2019-03-11T08:30:25.865Z,99606
2019-03-11T08:35:25.865Z,99602
2019-03-11T08:40:25.860Z,99596
2019-03-11T08:45:25.850Z,99605
2019-03-11T08:50:25.867Z,99610
2019-03-11T08:55:25.864Z,99592
2019-03-11T09:00:25.858Z,99592
2019-03-11T09:05:25.881Z,99592
2019-03-11T09:10:25.870Z,99596
2019-03-11T09:15:25.867Z,99584
2019-03-11T09:20:25.864Z,99600
2019-03-11T09:25:25.868Z,99598
2019-03-11T09:30:25.875Z,99585
2019-03-11T09:35:25.872Z,99605
2019-03-11T09:40:25.884Z,99604
2019-03-11T09:45:25.883Z,99606
2019-03-11T09:50:25.871Z,99613
2019-03-11T09:55:25.883Z,99633
2019-03-11T10:00:25.888Z,99647
2019-03-11T10:05:25.857Z,99646
2019-03-11T10:10:25.896Z,99634
2019-03-11T10:15:25.898Z,99622
2019-03-11T10:20:25.899Z,99619
2019-03-11T10:25:25.925Z,99617
2019-03-11T10:30:25.896Z,99619
2019-03-11T10:35:31.686Z,99622
2019-03-11T10:40:25.903Z,99633
2019-03-11T10:45:31.477Z,99624
2019-03-11T10:50:25.906Z,99635
2019-03-11T10:55:25.867Z,99640
2019-03-11T11:00:25.921Z,99657
2019-03-11T11:05:25.911Z,99668
2019-03-11T11:10:25.919Z,99664
2019-03-11T11:15:25.927Z,99653
2019-03-11T11:20:25.926Z,99657
2019-03-11T11:25:25.927Z,99663
2019-03-11T11:30:25.935Z,99668
2019-03-11T11:35:25.926Z,99681
2019-03-11T11:40:25.922Z,99673
2019-03-11T11:45:25.950Z,99684
2019-03-11T11:50:25.925Z,99686
2019-03-11T11:55:25.903Z,99690
2019-03-11T12:00:26.007Z,99690
2019-03-11T12:05:25.943Z,99677
2019-03-11T12:10:25.918Z,99683
2019-03-11T12:15:25.950Z,99691
2019-03-11T12:20:25.935Z,99693
2019-03-11T12:25:25.951Z,99685
2019-03-11T12:30:25.940Z,99678
2019-03-11T12:35:25.961Z,99683
2019-03-11T12:40:25.956Z,99694
2019-03-11T12:45:25.978Z,99717
2019-03-11T12:50:25.952Z,99702
2019-03-11T12:55:25.968Z,99701
2019-03-11T13:00:25.976Z,99710
2019-03-11T13:05:25.967Z,99712
2019-03-11T13:10:25.966Z,99699
2019-03-11T13:15:25.949Z,99712
2019-03-11T13:20:25.980Z,99710
2019-03-11T13:25:25.984Z,99721
2019-03-11T13:30:25.964Z,99730
2019-03-11T13:35:25.982Z,99727
2019-03-11T13:40:25.951Z,99730
2019-03-11T13:45:25.994Z,99743
2019-03-11T13:50:25.979Z,99746
2019-03-11T13:55:25.978Z,99754
2019-03-11T14:00:25.956Z,99768
2019-03-11T14:05:25.995Z,99771
2019-03-11T14:10:26.002Z,99767
2019-03-11T14:15:25.994Z,99788
2019-03-11T14:20:25.966Z,99793
2019-03-11T14:25:26.009Z,99796
2019-03-11T14:30:26.010Z,99788
2019-03-11T14:35:26.145Z,99793
2019-03-11T14:40:26.036Z,99786
2019-03-11T14:45:25.984Z,99803
2019-03-11T14:50:26.026Z,99808
2019-03-11T14:55:25.980Z,99805
2019-03-11T15:00:26.021Z,99822
2019-03-11T15:05:26.012Z,99807
2019-03-11T15:10:26.013Z,99822
2019-03-11T15:15:26.091Z,99807
2019-03-11T15:20:25.987Z,99812
2019-03-11T15:25:26.024Z,99832
2019-03-11T15:30:26.045Z,99833
2019-03-11T15:35:26.023Z,99829
2019-03-11T15:40:26.031Z,99842
2019-03-11T15:45:26.037Z,99846
2019-03-11T15:50:26.045Z,99838
2019-03-11T15:55:26.037Z,99838
2019-03-11T16:00:26.042Z,99856
2019-03-11T16:05:26.048Z,99853
2019-03-11T16:10:26.004Z,99848
2019-03-11T16:15:26.038Z,99859
2019-03-11T16:20:26.044Z,99864
2019-03-11T16:25:26.052Z,99867
2019-03-11T16:30:26.067Z,99861
2019-03-11T16:35:26.070Z,99871
2019-03-11T16:40:26.052Z,99885
2019-03-11T16:45:26.050Z,99898
2019-03-11T16:50:26.065Z,99910
2019-03-11T16:55:26.067Z,99912
2019-03-11T17:00:26.078Z,99908
2019-03-11T17:05:26.078Z,99921
2019-03-11T17:10:26.090Z,99914
2019-03-11T17:15:26.080Z,99928
2019-03-11T17:20:26.068Z,99934
2019-03-11T17:25:26.085Z,99917
2019-03-11T17:30:26.084Z,99933
2019-03-11T17:35:26.073Z,99935
2019-03-11T17:40:26.093Z,99945
2019-03-11T17:45:26.089Z,99959
2019-03-11T17:50:26.049Z,99965
2019-03-11T17:55:26.114Z,99977
2019-03-11T18:00:26.242Z,99976
2019-03-11T18:05:26.099Z,99976
2019-03-11T18:10:26.111Z,99971
2019-03-11T18:15:26.103Z,99995
2019-03-11T18:20:26.104Z,99993
2019-03-11T18:25:26.106Z,99999
2019-03-11T18:30:26.126Z,99986
2019-03-11T18:35:26.154Z,99998
2019-03-11T18:40:26.138Z,99993
2019-03-11T18:45:26.099Z,99990
2019-03-11T18:50:26.155Z,99995
2019-03-11T18:55:26.110Z,100003
2019-03-11T19:00:26.118Z,100014
2019-03-11T19:05:26.157Z,100008
2019-03-11T19:10:26.278Z,100003
2019-03-11T19:15:26.143Z,100013
2019-03-11T19:20:26.143Z,100013
2019-03-11T19:25:26.130Z,100025
2019-03-11T19:30:26.179Z,100017
2019-03-11T19:35:26.201Z,100025
2019-03-11T19:40:26.158Z,100040
2019-03-11T19:45:26.155Z,100046
2019-03-11T19:50:26.133Z,100055
2019-03-11T19:55:26.183Z,100080
2019-03-11T20:00:26.206Z,100070
2019-03-11T20:05:26.149Z,100093
2019-03-11T20:10:26.179Z,100106
2019-03-11T20:15:26.151Z,100099
2019-03-11T20:20:26.164Z,100114
2019-03-11T20:25:26.218Z,100128
2019-03-11T20:30:26.203Z,100132
2019-03-11T20:35:26.188Z,100131
2019-03-11T20:40:26.199Z,100147
2019-03-11T20:45:26.212Z,100163
2019-03-11T20:50:26.153Z,100173
2019-03-11T20:55:26.171Z,100176
2019-03-11T21:00:26.310Z,100182
2019-03-11T21:05:26.226Z,100196
2019-03-11T21:10:26.143Z,100210
2019-03-11T21:15:26.217Z,100198
2019-03-11T21:20:26.172Z,100203
2019-03-11T21:25:26.245Z,100216
2019-03-11T21:30:26.204Z,100226
2019-03-11T21:35:26.370Z,100248
2019-03-11T21:40:26.264Z,100243
2019-03-11T21:45:33.828Z,100257
2019-03-11T21:50:26.225Z,100253
2019-03-11T21:55:26.273Z,100275
2019-03-11T22:00:34.199Z,100277
2019-03-11T22:05:26.203Z,100293
2019-03-11T22:10:26.226Z,100305
2019-03-11T22:15:26.190Z,100318
2019-03-11T22:20:26.197Z,100331
2019-03-11T22:25:26.208Z,100345
2019-03-11T22:30:26.210Z,100348
2019-03-11T22:35:28.876Z,100354
2019-03-11T22:40:26.177Z,100362
2019-03-11T22:45:26.252Z,100380
2019-03-11T22:50:26.213Z,100387
2019-03-11T22:55:26.213Z,100387
2019-03-11T23:00:26.246Z,100402
2019-03-11T23:05:26.212Z,100432
2019-03-11T23:10:26.225Z,100435
2019-03-11T23:15:26.230Z,100454
2019-03-11T23:20:26.186Z,100449
2019-03-11T23:25:26.242Z,100476
2019-03-11T23:30:26.229Z,100473
2019-03-11T23:35:26.230Z,100480
2019-03-11T23:40:26.242Z,100481
2019-03-11T23:45:26.236Z,100496
2019-03-11T23:50:26.213Z,100503
2019-03-11T23:55:26.243Z,100514
